Date,TemperatureHighF,TemperatureAvgF,TemperatureLowF,DewpointHighF,DewpointAvgF,DewpointLowF,HumidityHigh,HumidityAvg,HumidityLow,PressureMaxIn,PressureMinIn,WindSpeedMaxMPH,WindSpeedAvgMPH,GustSpeedMaxMPH,PrecipitationSumIn
2013-1-1,58.3,41.5,31.8,37.2,30.9,27.2,90,69,31,30.21,30.12,5,1,8,0.01
2013-1-2,59.3,40.9,28.2,36.5,30.4,23.4,87,68,38,30.18,30.07,4,0,5,0.00
2013-1-3,59.5,40.7,28.2,38.2,31.1,24.6,88,71,37,30.19,30.09,2,0,3,0.01
2013-1-4,55.3,41.0,29.4,41.7,33.9,26.0,89,77,55,30.22,30.11,2,0,6,0.00
2013-1-5,51.6,42.9,31.9,42.3,37.3,28.5,90,81,65,30.20,30.02,5,0,7,0.25
2013-1-6,56.0,45.9,36.5,48.9,41.0,32.4,93,84,64,30.10,30.00,3,0,6,0.84
2013-1-7,49.2,40.1,34.1,44.0,36.6,30.9,94,88,79,30.18,30.05,5,1,7,0.01
2013-1-8,57.2,44.6,35.2,44.6,38.7,32.8,93,81,61,30.17,30.07,3,0,3,0.01
2013-1-9,49.2,44.2,38.3,44.5,39.7,32.5,92,84,66,30.10,29.85,7,2,7,0.01
2013-1-10,54.8,40.6,31.6,38.9,30.4,25.4,90,70,35,30.07,29.94,7,1,10,0.00
2013-1-11,51.3,37.6,27.0,34.6,27.7,23.4,87,69,41,30.16,30.04,2,0,4,0.01
2013-1-12,52.0,38.0,27.5,31.0,24.2,17.2,84,61,28,30.16,30.07,2,0,3,0.00
2013-1-13,49.1,34.6,22.1,30.7,22.6,17.4,86,64,39,30.18,30.08,6,1,10,0.00
2013-1-14,55.3,38.8,23.9,25.8,19.7,14.5,76,50,22,30.33,30.11,4,1,6,0.00
2013-1-15,53.2,39.4,29.7,33.8,27.3,22.6,78,63,40,30.42,30.31,3,0,5,0.00
2013-1-16,63.5,41.8,27.8,37.3,29.4,23.6,87,65,30,30.36,30.20,1,0,5,0.00
2013-1-17,65.6,42.8,27.9,38.0,29.3,23.6,86,62,28,30.21,30.08,3,0,4,0.00
2013-1-18,66.8,44.5,28.1,38.9,30.3,23.7,86,62,27,30.17,30.06,3,0,5,0.00
2013-1-19,67.1,45.8,30.3,37.3,30.9,25.6,84,61,24,30.20,30.08,5,1,8,0.01
2013-1-20,67.9,45.5,29.0,38.4,30.4,24.2,87,60,23,30.17,30.05,2,0,5,0.00
2013-1-21,62.4,44.1,28.2,39.3,32.3,23.4,87,66,36,30.12,30.03,2,0,5,0.00
2013-1-22,63.5,46.6,32.2,41.5,35.5,28.2,87,67,41,30.08,29.94,3,0,3,0.00
2013-1-23,57.2,48.6,42.6,46.1,41.7,36.5,89,78,53,30.02,29.90,5,1,7,0.10
2013-1-24,53.6,50.7,47.9,50.4,47.9,45.2,92,90,87,30.11,29.98,5,1,10,0.09
2013-1-25,70.4,58.0,51.4,56.1,51.4,48.3,94,80,53,30.11,29.94,6,1,6,0.06
2013-1-26,58.4,51.2,41.2,50.7,45.0,37.3,95,81,47,29.95,29.85,11,3,15,0.00
2013-1-27,60.5,45.7,34.7,42.0,35.0,29.5,91,69,40,30.07,29.93,5,1,8,0.00
2013-1-28,60.7,44.3,31.2,37.0,32.6,27.3,89,66,38,30.17,30.04,8,1,13,0.01
2013-1-29,62.7,46.5,35.6,40.5,34.8,30.8,86,67,35,30.25,30.14,9,1,14,0.00
2013-1-30,60.4,47.2,35.0,44.6,37.9,31.5,88,72,51,30.27,30.18,4,1,7,0.00
2013-1-31,70.9,51.2,35.8,45.7,39.7,32.6,90,68,37,30.22,30.11,2,0,5,0.00
2013-2-1,71.5,50.5,34.6,47.0,40.1,31.4,91,70,36,30.14,30.03,2,0,5,0.00
2013-2-2,70.1,50.1,39.8,47.8,41.7,36.1,91,75,40,30.20,30.11,2,0,3,0.00
2013-2-3,66.9,49.3,38.8,49.8,41.1,36.7,94,76,41,30.15,30.02,3,1,5,0.01
2013-2-4,62.9,49.5,37.3,48.3,42.3,34.6,92,77,56,30.09,29.96,4,1,7,0.01
2013-2-5,55.6,45.3,36.8,44.9,40.2,34.7,94,83,65,30.04,29.95,10,2,12,0.00
2013-2-6,63.7,46.3,37.3,47.0,38.0,34.6,95,76,36,30.10,30.01,5,1,6,0.01
2013-2-7,55.4,45.4,37.8,44.8,38.8,33.3,93,79,49,30.08,29.90,8,3,11,0.03
2013-2-8,60.9,45.8,34.1,40.8,33.0,27.4,92,65,31,29.91,29.81,8,2,13,0.00
2013-2-9,41.8,8.7,35.5,29.5,-70.6,-99.9,71,15,61,30.00,29.86,5,-777,7,0.00
2013-2-10,-200.0,0.0,200.0,-99.9,-99.9,-99.9,0,0,100,30.04,29.91,0,-999,0,0.00
2013-2-11,-200.0,0.0,200.0,-99.9,-99.9,-99.9,0,0,100,30.14,29.97,0,-999,0,0.00
2013-2-12,63.2,18.8,44.3,40.4,-53.9,-99.9,66,16,37,30.29,30.14,3,-659,6,0.00
2013-2-13,63.5,28.9,42.3,43.0,-26.3,-99.9,80,31,42,30.25,30.11,3,-471,5,0.00
2013-2-14,65.8,37.4,37.5,45.7,-1.0,-99.9,84,46,43,30.17,30.07,3,-298,6,0.00
2013-2-15,71.1,32.7,42.6,47.6,-20.8,-99.9,86,32,34,30.20,30.12,3,-437,5,0.00
2013-2-16,-200.0,0.0,200.0,-99.9,-99.9,-99.9,0,0,100,30.16,29.93,0,-999,0,0.00
2013-2-17,-200.0,0.0,200.0,-99.9,-99.9,-99.9,0,0,100,29.94,29.85,0,-999,0,0.00
2013-2-18,56.7,19.7,44.6,41.7,-44.9,-99.9,75,26,56,29.92,29.82,11,-598,16,0.01
2013-2-19,47.1,41.8,36.3,39.8,36.0,32.2,87,80,70,29.85,29.65,11,4,17,0.16
2013-2-20,62.6,44.5,29.5,42.6,30.3,26.1,92,63,26,29.94,29.73,10,2,17,0.01
2013-2-21,63.9,47.3,34.3,38.8,32.0,26.3,88,60,25,30.06,29.94,8,2,13,0.00
2013-2-22,63.1,47.2,34.0,39.4,34.7,28.5,82,63,36,30.16,30.05,4,1,6,0.00
2013-2-23,62.0,51.2,42.5,42.8,31.1,19.4,89,52,22,30.13,30.04,11,4,20,0.00
2013-2-24,67.4,50.9,39.5,30.3,25.0,20.5,64,39,17,30.14,30.06,8,3,12,0.00
2013-2-25,68.4,50.0,36.9,38.6,32.1,27.4,78,53,26,30.18,30.07,4,1,8,0.00
2013-2-26,68.1,51.5,36.5,31.6,26.5,19.2,76,43,16,30.11,30.01,11,3,17,0.00
2013-2-27,67.4,50.4,34.0,39.6,31.9,24.8,74,52,21,30.25,30.10,4,1,6,0.00
2013-2-28,75.4,57.0,41.8,40.0,36.7,34.6,78,51,23,30.34,30.25,7,1,10,0.00
2013-3-1,77.0,57.2,41.1,45.9,41.2,34.3,82,58,28,30.32,30.15,3,0,6,0.00
2013-3-2,70.3,58.8,45.7,49.9,45.3,39.5,84,63,42,30.16,29.96,2,0,3,0.00
2013-3-3,65.0,56.5,46.5,51.7,47.7,41.3,82,73,60,29.99,29.91,8,2,10,0.00
2013-3-4,64.3,51.1,41.1,50.0,44.2,38.1,91,78,56,30.04,29.93,4,1,7,0.00
2013-3-5,60.9,50.0,41.8,42.5,39.8,35.2,86,69,42,29.96,29.76,8,2,16,0.06
2013-3-6,57.2,50.8,46.2,44.1,39.5,34.5,85,66,45,29.98,29.76,10,4,16,0.07
2013-3-7,60.4,48.7,38.0,42.2,37.2,33.2,88,67,39,29.91,29.77,6,0,6,0.00
2013-3-8,68.3,50.6,37.0,43.2,37.2,30.0,87,64,26,29.93,29.72,9,2,11,0.00
2013-3-9,72.5,54.9,38.0,43.2,34.2,25.3,88,53,18,30.18,29.93,11,2,13,0.00
2013-3-10,68.3,51.9,37.3,44.8,37.8,30.4,79,60,36,30.27,30.16,4,1,9,0.00
2013-3-11,69.9,55.2,39.1,47.2,41.0,34.1,86,61,35,30.17,30.00,4,0,7,0.00
2013-3-12,78.8,59.6,42.2,50.1,43.4,37.4,87,59,28,30.07,29.97,4,0,5,0.00
2013-3-13,83.4,63.0,44.5,52.0,46.3,39.3,88,58,26,30.08,29.97,3,0,6,0.00
2013-3-14,81.1,62.2,47.6,54.6,48.2,42.7,87,63,30,30.05,29.97,4,1,7,0.00
2013-3-15,79.8,60.9,45.5,51.5,45.6,39.2,89,62,25,30.00,29.91,5,1,6,0.00
2013-3-16,79.9,59.7,43.8,51.3,43.3,28.9,89,61,18,29.97,29.88,7,1,7,0.00
2013-3-17,74.6,59.4,42.1,44.0,36.6,30.5,79,46,21,30.03,29.91,5,1,8,0.00
2013-3-18,70.4,56.3,39.9,45.1,39.2,33.6,86,56,27,30.00,29.92,3,1,5,0.00
2013-3-19,69.6,57.0,44.9,49.1,43.3,39.6,86,63,36,30.05,29.95,10,1,15,0.16
2013-3-20,62.0,55.5,50.2,54.5,51.0,46.5,92,85,64,30.02,29.98,7,2,14,0.29
2013-3-21,69.1,55.4,44.2,50.7,39.7,22.4,92,62,18,30.01,29.89,8,3,11,0.01
2013-3-22,67.6,54.8,42.3,30.2,23.4,15.1,52,33,15,29.99,29.90,14,6,21,0.00
2013-3-23,73.2,54.8,37.9,35.2,28.0,22.2,68,39,15,30.05,29.93,5,1,7,0.00
2013-3-24,76.3,56.2,39.9,44.2,36.6,31.0,76,51,19,30.00,29.85,5,1,8,0.00
2013-3-25,68.1,54.3,43.1,46.1,41.8,37.2,84,64,38,29.90,29.80,9,3,13,0.00
2013-3-26,71.5,55.9,42.9,48.6,43.4,38.3,86,65,34,29.90,29.81,5,1,6,0.00
2013-3-27,68.4,56.6,45.1,51.1,46.2,39.9,86,69,51,29.92,29.83,11,3,13,0.00
2013-3-28,75.4,61.6,53.9,52.2,49.3,46.6,85,66,37,30.00,29.92,4,1,8,0.00
2013-3-29,82.4,64.6,49.1,50.1,46.3,41.0,86,57,26,30.00,29.90,3,1,6,0.00
2013-3-30,76.7,60.7,48.9,55.2,48.3,42.9,87,65,41,29.94,29.86,7,2,11,0.00
2013-3-31,69.4,59.5,53.5,55.2,50.5,43.7,92,74,41,30.00,29.89,8,2,10,0.39
2013-4-1,72.5,58.9,51.9,55.2,50.4,47.8,91,75,43,30.06,29.97,5,1,7,0.01
2013-4-2,76.1,59.8,44.9,54.3,48.3,41.6,91,69,36,30.07,29.96,5,1,7,0.33
2013-4-3,75.1,60.6,46.8,56.7,48.9,43.1,90,68,39,30.03,29.87,2,0,6,0.00
2013-4-4,65.6,57.6,52.0,57.8,50.8,43.6,90,78,61,30.02,29.88,9,2,11,0.43
2013-4-5,66.3,57.8,50.2,51.7,49.2,46.6,89,74,52,30.06,30.00,7,2,9,0.00
2013-4-6,65.6,57.0,50.1,52.7,49.7,46.0,89,77,58,30.09,30.00,5,2,8,0.00
2013-4-7,66.3,56.4,49.5,53.1,47.9,42.5,88,74,56,30.05,29.72,15,5,21,0.00
2013-4-8,69.4,57.8,48.0,46.8,34.7,25.6,88,47,21,29.89,29.64,16,7,24,0.12
2013-4-9,76.7,62.5,48.0,36.8,32.5,27.8,56,35,18,29.97,29.89,13,6,19,0.00
2013-4-10,88.8,66.7,50.8,57.0,43.2,34.1,74,45,21,30.08,29.86,4,1,8,0.00
2013-4-11,82.2,65.4,50.1,51.4,43.9,34.5,88,52,20,29.88,29.71,6,2,8,0.00
2013-4-12,82.8,61.3,45.2,52.8,43.9,32.9,86,59,18,29.79,29.69,2,0,4,0.00
2013-4-13,76.7,60.1,47.3,53.9,46.5,41.1,80,62,33,29.78,29.67,3,0,6,0.00
2013-4-14,76.8,58.6,42.5,46.4,38.3,22.8,85,53,14,29.80,29.64,6,2,12,0.00
2013-4-15,62.6,51.5,43.9,46.2,41.7,33.0,88,71,38,29.80,29.70,9,1,18,0.04
2013-4-16,69.4,51.8,42.9,33.1,27.3,19.2,61,43,15,30.05,29.80,9,2,17,0.00
2013-4-17,72.8,58.0,43.9,29.1,24.7,18.0,54,31,15,30.14,30.05,12,5,18,0.00
2013-4-18,79.2,59.7,38.9,37.2,30.7,23.6,72,37,13,30.17,30.08,2,0,6,0.00
2013-4-19,82.6,64.0,45.5,48.1,41.0,35.9,74,47,20,30.14,29.94,3,0,6,0.00
2013-4-20,85.5,69.0,54.7,46.0,36.8,20.3,60,36,10,29.99,29.85,7,3,12,0.00
2013-4-21,90.7,68.4,47.0,48.0,41.2,32.3,79,44,13,29.92,29.82,5,1,7,0.00
2013-4-22,91.6,71.2,51.0,47.2,38.4,25.8,78,38,11,29.86,29.73,7,2,17,0.00
2013-4-23,87.6,70.6,55.4,42.6,29.6,22.9,61,24,10,29.82,29.72,8,3,13,0.00
2013-4-24,92.1,65.2,45.8,48.8,40.2,25.3,82,50,10,29.78,29.63,11,2,17,0.00
2013-4-25,72.7,58.7,48.5,49.7,46.2,43.2,88,66,36,30.00,29.78,8,3,11,0.00
2013-4-26,85.5,62.1,45.7,51.0,47.0,42.1,89,63,25,30.10,30.00,5,1,7,0.00
2013-4-27,90.3,66.1,47.3,52.6,48.1,42.7,86,58,23,30.11,29.93,4,0,7,0.00
2013-4-28,93.6,71.9,51.0,52.0,47.0,40.4,85,48,18,29.93,29.75,3,1,9,0.00
2013-4-29,94.3,75.0,55.7,51.7,44.8,35.7,79,41,13,29.78,29.63,7,2,8,0.00
2013-4-30,86.3,72.7,61.6,48.4,30.3,15.3,56,25,9,29.72,29.64,11,4,18,0.00
2013-5-1,91.4,73.6,58.0,36.5,25.2,17.6,34,18,8,29.96,29.73,8,4,13,0.00
2013-5-2,94.7,74.4,57.3,37.7,29.4,22.0,43,22,8,30.06,29.95,3,1,9,0.00
2013-5-3,95.1,74.8,54.1,46.7,39.2,31.3,61,33,11,29.96,29.67,4,1,11,0.00
2013-5-4,92.5,73.1,52.9,46.7,38.8,29.0,72,36,11,29.67,29.40,6,2,10,0.00
2013-5-5,77.2,63.1,50.1,47.7,45.1,38.4,83,55,27,29.71,29.47,6,1,15,0.00
2013-5-6,78.5,64.3,56.7,52.9,49.3,44.6,82,61,31,29.86,29.71,9,1,15,0.01
2013-5-7,72.3,64.0,55.0,52.8,49.1,45.8,85,61,40,29.92,29.86,5,1,7,0.00
2013-5-8,74.7,63.0,54.1,52.2,48.6,42.2,86,62,32,30.01,29.91,7,2,11,0.01
2013-5-9,85.1,63.7,49.2,54.0,49.6,44.9,88,64,31,30.03,29.92,8,2,11,0.00
2013-5-10,88.2,66.7,50.1,56.6,51.3,46.1,87,62,30,30.06,29.93,5,1,8,0.00
2013-5-11,97.8,74.5,55.0,56.2,52.0,48.0,82,51,22,30.01,29.90,3,0,7,0.00
2013-5-12,94.0,74.0,56.0,54.4,45.8,31.2,71,43,11,30.00,29.88,5,1,11,0.00
2013-5-13,92.7,72.1,54.1,54.7,46.5,35.8,69,45,14,29.95,29.80,6,1,8,0.00
2013-5-14,88.4,70.4,54.4,53.0,49.1,44.2,82,51,26,29.83,29.75,9,2,11,0.00
2013-5-15,76.7,64.9,54.1,46.9,43.4,39.6,66,48,28,29.92,29.83,9,4,16,0.00
2013-5-16,76.5,62.8,55.3,52.2,47.4,43.2,75,59,32,29.91,29.81,10,4,16,0.00
2013-5-17,76.7,61.5,49.4,47.8,42.5,34.8,81,54,22,29.95,29.85,7,2,13,0.00
2013-5-18,84.9,63.8,44.6,47.6,41.1,31.9,82,51,15,30.02,29.92,4,1,7,0.00
2013-5-20,90.1,78.0,64.0,41.2,34.9,20.6,43,24,8,29.80,29.77,4,0,9,0.00
2013-5-21,80.3,66.8,54.8,45.4,40.9,34.1,63,41,20,29.82,29.74,9,3,17,0.00
2013-5-22,74.9,60.9,49.1,42.8,25.7,11.1,65,30,9,29.88,29.75,6,3,11,0.00
2013-5-23,78.1,60.3,45.5,41.6,36.3,26.9,79,47,16,29.87,29.77,4,1,9,0.00
2013-5-24,79.4,62.3,44.5,43.3,37.1,23.9,77,45,15,29.89,29.80,8,2,10,0.00
2013-5-25,78.3,61.4,46.4,45.2,41.2,37.6,77,51,25,29.90,29.83,9,2,12,0.00
2013-5-26,79.6,63.0,50.2,49.8,45.9,41.0,84,57,26,29.98,29.90,10,2,16,0.00
2013-5-27,66.9,59.3,50.5,54.0,48.2,44.2,88,68,48,29.98,29.90,7,2,10,0.06
2013-5-28,81.8,66.9,57.2,55.8,51.5,43.3,90,63,27,29.90,29.77,4,1,6,0.00
2013-5-29,84.0,67.7,55.9,53.9,49.5,40.4,86,56,23,29.83,29.74,8,2,13,0.06
2013-5-30,88.8,68.9,50.2,49.9,45.1,35.4,83,49,17,29.84,29.79,5,1,7,0.00
2013-5-31,95.1,74.1,49.6,50.1,41.7,36.7,79,38,14,29.88,29.76,6,2,10,0.00
2013-6-1,100.2,79.4,56.9,50.0,43.8,33.1,66,34,10,29.78,29.63,4,1,9,0.00
2013-6-2,98.2,78.1,58.1,50.2,46.1,39.2,72,37,14,29.64,29.50,4,1,12,0.00
2013-6-3,91.4,71.6,56.3,52.7,49.6,46.0,76,49,23,29.69,29.57,8,2,14,0.00
2013-6-4,82.0,65.6,53.8,51.8,49.8,48.2,83,60,34,29.80,29.69,8,2,13,0.00
2013-6-5,88.0,67.1,53.2,53.9,50.5,47.5,82,59,30,29.88,29.73,7,2,12,0.00
2013-6-6,96.6,70.9,52.9,56.2,51.6,47.7,85,55,22,29.81,29.67,7,1,10,0.00
2013-6-7,106.5,80.8,56.5,60.4,53.8,47.1,80,46,15,29.75,29.57,5,1,10,0.00
2013-6-8,111.3,86.5,65.8,59.1,54.7,50.9,68,39,14,29.61,29.50,7,-33,11,0.00
2013-6-9,78.6,67.3,59.6,54.0,52.3,50.9,74,60,40,29.75,29.61,13,-1,16,0.00
2013-6-10,73.2,63.7,56.2,51.8,50.5,48.7,80,64,43,29.84,29.71,9,4,12,0.00
2013-6-11,85.3,69.3,52.8,52.9,49.7,44.6,84,54,29,29.87,29.76,5,1,10,0.00
2013-6-12,88.6,71.1,55.9,53.1,45.5,36.2,71,44,17,29.84,29.77,11,2,12,0.00
2013-6-13,89.0,70.9,50.7,46.0,39.1,24.7,72,38,11,29.95,29.84,6,1,8,0.00
2013-6-14,91.6,74.6,59.9,47.7,39.7,22.8,59,33,9,29.86,29.69,5,1,10,0.00
2013-6-15,89.0,70.9,52.8,48.2,41.6,33.0,66,39,14,29.83,29.70,8,2,12,0.00
2013-6-16,94.3,71.8,52.0,49.2,45.0,36.4,77,44,14,29.92,29.83,7,1,11,0.00
2013-6-17,87.4,69.5,53.9,51.0,47.2,43.5,76,49,22,29.94,29.85,11,2,19,0.00
2013-6-18,78.1,64.9,55.6,50.1,46.8,39.8,80,56,28,29.89,29.80,11,3,22,0.00
2013-6-19,83.0,66.5,49.2,48.1,40.2,19.7,84,46,10,29.93,29.86,4,1,11,0.00
2013-6-20,87.4,69.3,50.4,47.9,43.3,35.7,75,45,17,29.87,29.79,7,1,8,0.00
2013-6-21,91.0,72.6,52.2,48.3,42.7,24.7,76,40,10,29.84,29.75,5,1,6,0.00
2013-6-22,95.6,75.3,53.8,49.5,42.8,34.9,71,37,12,29.80,29.67,8,-89,10,0.00
2013-6-23,75.6,66.5,58.3,58.5,53.8,46.1,79,64,46,29.75,29.68,13,4,18,0.00
2013-6-24,69.4,63.6,60.7,60.2,57.1,54.0,89,80,62,29.82,29.68,5,1,7,0.14
2013-6-25,75.3,67.8,62.4,66.3,61.5,59.1,92,81,65,29.89,29.80,3,0,6,0.19
2013-6-26,88.0,74.4,61.3,62.6,58.7,52.4,89,62,32,29.94,29.86,5,1,13,0.00
2013-6-27,99.7,80.5,61.5,61.0,55.1,41.4,85,49,15,29.96,29.86,3,1,12,0.00
2013-6-28,106.8,85.6,64.7,62.0,56.5,49.0,80,43,15,29.90,29.74,6,1,9,0.00
2013-6-29,108.2,89.5,69.8,62.7,55.0,42.4,64,35,12,29.78,29.64,4,1,7,0.00
2013-6-30,108.5,87.3,67.9,58.0,54.4,46.9,64,37,13,29.70,29.60,5,1,10,0.00
2013-7-1,109.3,87.4,66.8,59.6,53.3,34.0,64,36,8,29.70,29.64,3,0,6,0.00
2013-7-2,103.6,86.9,72.8,59.5,55.4,46.6,62,37,20,29.76,29.65,8,2,12,0.00
2013-7-3,108.8,85.9,66.8,60.0,56.3,51.3,67,40,19,29.76,29.60,4,1,8,0.00
2013-7-4,106.8,88.6,72.1,61.7,57.9,51.6,65,39,18,29.63,29.49,9,-103,10,0.00
2013-7-5,86.3,75.1,65.3,52.3,47.8,42.3,57,39,27,29.63,29.53,6,3,14,0.00
2013-7-6,88.8,70.7,55.3,54.6,49.8,41.5,80,52,24,29.67,29.58,5,1,7,0.00
2013-7-7,95.4,74.6,56.0,57.6,46.0,23.2,80,44,9,29.71,29.63,4,1,11,0.00
2013-7-8,95.9,72.8,55.6,52.7,44.7,29.0,81,45,10,29.83,29.71,3,0,7,0.00
2013-7-9,102.8,82.2,58.7,51.8,44.4,32.5,67,34,10,29.91,29.78,3,0,7,0.00
2013-7-10,98.2,78.8,61.2,53.1,44.6,31.6,67,35,11,29.83,29.73,7,1,10,0.00
2013-7-11,91.2,70.3,53.5,49.7,45.5,30.6,82,48,12,29.80,29.71,5,1,10,0.00
2013-7-12,89.9,70.2,52.3,52.7,48.5,41.1,85,52,20,29.81,29.72,4,1,8,0.00
2013-7-13,96.1,75.3,56.2,50.1,43.8,29.4,71,39,10,29.83,29.75,2,0,7,0.00
2013-7-14,95.6,74.0,58.9,51.1,46.0,37.2,62,41,15,29.85,29.73,3,1,10,0.00
2013-7-15,86.1,68.3,54.5,51.4,47.6,35.7,81,52,17,29.77,29.67,7,2,11,0.00
2013-7-16,78.1,66.2,53.3,52.4,50.2,47.6,86,59,35,29.90,29.73,7,2,11,0.00
2013-7-17,94.3,71.6,52.8,53.7,48.7,34.8,87,53,13,29.97,29.86,4,1,8,0.00
2013-7-18,99.0,75.8,53.9,54.1,47.2,29.9,84,45,9,29.92,29.77,3,0,8,0.00
2013-7-19,102.3,78.2,57.2,53.3,49.4,43.3,75,42,15,29.80,29.64,3,0,6,0.00
2013-7-20,101.5,78.0,59.6,54.9,51.2,47.5,72,44,19,29.71,29.56,4,1,12,0.00
2013-7-21,95.4,76.8,61.0,54.1,48.7,40.8,67,41,18,29.74,29.61,5,2,11,0.00
2013-7-22,94.0,76.2,62.0,53.6,46.8,29.8,70,40,12,29.83,29.74,9,2,13,0.00
2013-7-23,92.5,77.7,66.8,49.7,44.6,27.3,52,33,11,29.88,29.75,10,2,19,0.00
2013-7-24,100.2,79.6,62.1,54.8,50.1,43.6,66,39,19,29.85,29.73,3,1,9,0.00
2013-7-25,97.8,79.9,65.6,56.9,51.3,48.2,58,39,22,29.85,29.76,6,2,10,0.00
2013-7-26,95.6,75.2,60.5,55.3,51.2,48.7,69,46,22,29.94,29.82,5,2,8,0.00
2013-7-27,92.5,73.0,57.2,55.4,52.2,49.4,81,52,25,29.86,29.69,6,2,10,0.00
2013-7-28,89.3,71.3,57.0,56.9,51.2,46.1,80,53,24,29.74,29.63,6,2,11,0.00
2013-7-29,81.4,65.9,52.0,52.5,49.9,46.9,86,60,32,29.88,29.69,5,2,11,0.00
2013-7-30,91.4,69.1,52.2,56.0,49.9,34.8,88,57,16,29.97,29.86,5,1,11,0.00
2013-7-31,88.6,69.2,54.5,52.2,48.5,41.6,82,53,20,29.95,29.83,7,2,12,0.00
2013-8-1,86.1,70.0,55.7,50.5,45.8,38.5,72,46,19,29.92,29.81,6,2,8,0.00
2013-8-2,94.5,72.9,52.0,52.3,46.9,40.8,82,46,16,29.85,29.74,4,1,8,0.00
2013-8-3,92.7,72.4,56.2,51.9,47.8,39.1,76,47,16,29.85,29.75,4,1,8,0.00
2013-8-4,90.7,69.9,52.9,52.7,48.6,39.5,84,52,18,29.87,29.78,5,1,13,0.00
2013-8-5,90.1,69.1,54.2,51.8,47.7,35.7,87,54,15,29.90,29.78,4,1,11,0.00
2013-8-6,85.1,66.1,52.2,52.6,49.6,45.1,88,60,26,29.91,29.82,6,2,11,0.00
2013-8-7,77.7,65.2,57.0,54.1,52.3,49.9,82,65,39,29.98,29.90,7,4,12,0.00
2013-8-8,85.3,67.6,56.2,55.7,51.0,41.9,85,60,24,29.92,29.78,6,2,7,0.00
2013-8-9,83.2,66.6,54.5,54.3,51.3,47.5,86,62,30,29.86,29.78,7,2,10,0.00
2013-8-10,88.6,68.7,55.9,54.5,52.5,48.5,86,61,27,29.92,29.84,6,2,11,0.00
2013-8-11,93.4,71.5,55.3,56.4,51.9,47.1,87,56,22,29.90,29.78,6,1,10,0.00
2013-8-12,91.4,72.2,55.7,53.9,47.2,34.5,82,48,14,29.87,29.79,4,1,8,0.00
2013-8-13,99.2,76.9,56.3,52.9,46.5,38.8,74,40,14,29.88,29.75,2,0,9,0.00
2013-8-14,97.1,75.6,57.8,53.0,47.7,39.2,70,41,14,29.84,29.74,6,1,11,0.00
2013-8-15,95.6,75.1,57.5,59.4,53.8,47.2,82,53,20,29.84,29.75,4,1,8,0.00
2013-8-16,97.8,77.7,60.9,60.9,54.6,48.0,86,51,20,29.85,29.78,7,1,10,0.00
2013-8-17,97.1,76.5,61.3,55.0,51.8,46.9,69,45,21,29.85,29.69,6,1,10,0.00
2013-8-18,102.5,80.9,62.0,57.4,53.7,46.3,76,44,17,29.77,29.64,1,0,6,0.00
2013-8-19,106.5,85.4,70.3,58.3,54.7,49.9,60,38,17,29.77,29.63,5,0,7,0.00
2013-8-20,96.8,77.7,65.8,58.3,54.1,51.7,67,46,27,29.76,29.64,6,1,8,0.00
2013-8-21,90.1,72.5,60.4,54.3,49.8,37.1,75,50,19,29.80,29.70,6,2,9,0.00
2013-8-22,85.9,69.5,57.2,53.5,50.3,43.1,80,54,23,29.82,29.72,5,2,10,0.00
2013-8-23,90.7,70.0,53.6,54.5,50.6,46.2,87,56,24,29.80,29.65,5,-28,10,0.00
2013-8-24,88.0,70.9,56.2,55.4,50.7,43.3,78,52,23,29.75,29.68,8,2,13,0.00
2013-8-25,88.0,72.4,60.7,60.4,56.1,51.8,86,61,30,29.83,29.74,5,1,11,0.00
2013-8-26,90.1,71.7,58.6,56.1,51.1,37.1,86,55,17,29.89,29.75,6,1,8,0.00
2013-8-27,94.9,73.8,55.6,54.4,49.2,44.0,77,47,20,29.78,29.66,6,1,12,0.00
2013-8-28,92.7,73.7,59.8,58.4,52.4,37.4,82,53,15,29.80,29.72,3,1,8,0.00
2013-8-29,93.6,74.5,60.1,59.5,55.0,44.9,88,57,20,29.93,29.80,2,0,7,0.00
2013-8-30,99.4,77.7,57.8,60.8,52.7,39.6,87,50,14,29.92,29.76,1,0,6,0.00
2013-8-31,94.7,76.7,60.5,53.4,48.1,37.1,65,41,14,29.84,29.74,6,1,9,0.00
2013-9-1,91.0,74.1,60.5,56.8,51.1,43.6,75,49,20,29.81,29.72,6,1,11,0.01
2013-9-2,81.1,71.0,65.8,66.1,59.8,56.2,86,69,47,29.85,29.76,2,0,6,0.28
2013-9-3,84.0,67.5,61.5,59.1,53.9,43.3,79,64,24,29.87,29.79,4,0,8,0.01
2013-9-4,88.6,70.7,58.0,56.1,51.2,37.2,83,55,17,29.91,29.80,6,1,8,0.00
2013-9-5,86.5,69.9,57.2,55.1,50.9,39.8,82,56,20,29.89,29.80,5,1,10,0.00
2013-9-6,95.1,72.6,53.6,55.0,47.5,40.0,83,48,15,29.87,29.71,3,1,11,0.00
2013-9-7,100.2,79.0,56.2,49.4,42.9,36.4,69,33,13,29.77,29.67,2,0,6,0.00
2013-9-8,102.0,80.5,59.2,53.0,45.1,35.1,70,34,11,29.74,29.60,4,1,7,0.00
2013-9-9,102.0,80.4,59.5,50.9,46.2,41.6,64,34,14,29.67,29.52,1,0,6,0.00
2013-9-10,87.4,72.0,61.3,56.5,53.0,47.2,82,54,29,29.76,29.57,7,2,13,0.00
2013-9-11,80.7,67.5,58.0,57.0,55.1,53.1,88,67,39,29.87,29.76,7,1,12,0.00
2013-9-12,89.9,70.7,57.3,58.8,55.7,50.0,88,63,27,29.87,29.72,4,1,8,0.00
2013-9-13,94.7,72.9,58.3,57.6,54.3,50.4,84,57,26,29.77,29.59,8,1,8,0.00
2013-9-14,87.2,70.2,58.0,55.5,52.6,50.0,80,56,31,29.68,29.58,4,1,9,0.00
2013-9-15,89.3,68.6,54.8,54.8,50.5,43.0,81,57,22,29.73,29.63,6,1,10,0.00
2013-9-16,89.9,70.1,55.3,58.4,52.5,44.6,89,59,25,29.77,29.63,3,0,5,0.00
2013-9-17,86.1,68.9,55.9,52.6,49.9,41.5,82,55,22,29.76,29.68,6,1,10,0.00
2013-9-18,87.4,71.3,57.3,51.2,43.3,35.0,70,41,16,29.80,29.68,4,1,8,0.00
2013-9-19,92.9,71.6,52.8,45.2,40.0,34.8,65,37,13,29.75,29.62,1,0,5,0.00
2013-9-20,80.9,67.2,54.2,56.6,47.5,37.6,78,51,32,29.75,29.63,8,3,13,0.00
2013-9-21,70.6,61.6,56.7,57.4,54.6,50.2,89,78,49,29.78,29.70,7,1,11,0.29
2013-9-22,77.7,63.1,49.4,55.3,49.5,41.5,90,66,29,29.89,29.78,2,0,10,0.00
2013-9-23,87.0,67.8,50.5,55.1,50.0,45.2,86,58,27,29.92,29.81,2,0,6,0.00
2013-9-24,81.4,66.1,56.7,54.3,50.6,44.0,83,61,29,29.87,29.74,8,2,10,0.00
2013-9-25,76.7,62.1,49.1,50.4,42.3,31.7,87,55,20,29.81,29.69,5,1,13,0.00
2013-9-26,77.7,63.6,51.0,39.7,36.8,33.0,62,40,21,29.85,29.70,7,3,14,0.00
2013-9-27,81.8,64.0,48.8,40.0,36.1,30.2,64,40,16,29.99,29.86,2,0,6,0.00
2013-9-28,83.8,66.7,48.5,46.8,35.6,30.6,68,36,16,29.99,29.87,3,0,11,0.00
2013-9-29,78.1,65.8,55.4,57.0,53.0,46.0,84,65,41,30.00,29.92,6,2,13,0.00
2013-9-30,79.2,67.0,58.4,58.6,56.0,53.6,86,70,45,29.97,29.84,5,1,10,0.00
2013-10-1,81.6,64.9,51.1,54.9,46.1,39.7,86,55,24,29.90,29.80,2,0,3,0.00
2013-10-2,83.0,64.1,48.8,49.8,42.1,36.1,84,50,19,29.88,29.80,2,0,6,0.00
2013-10-3,77.4,65.2,52.8,38.8,30.8,18.5,52,30,15,29.93,29.78,11,4,19,0.00
2013-10-4,85.5,68.9,54.7,32.6,27.8,22.2,43,23,11,30.00,29.86,5,2,11,0.00
2013-10-5,87.0,64.4,43.3,39.0,32.3,23.9,75,36,11,30.11,30.00,1,0,3,0.00
2013-10-6,89.0,66.0,43.8,41.5,33.1,25.0,75,34,10,30.04,29.89,1,0,2,0.00
2013-10-7,86.5,63.5,47.6,42.1,33.3,27.2,73,36,12,29.89,29.74,2,0,2,0.00
2013-10-8,80.7,63.5,49.1,38.7,35.4,30.5,64,38,18,29.78,29.56,3,0,6,0.00
2013-10-9,77.9,60.5,46.2,42.2,36.8,33.3,72,45,23,29.64,29.48,3,0,7,0.00
2013-10-10,73.2,60.0,48.6,44.5,40.0,36.7,72,50,28,29.89,29.64,7,1,9,0.00
2013-10-11,79.6,61.3,45.7,45.9,40.6,37.2,79,50,24,29.96,29.85,2,0,8,0.00
2013-10-12,76.0,59.7,45.2,45.2,40.7,36.1,80,53,24,29.89,29.76,5,1,8,0.00
2013-10-13,79.9,61.8,49.4,43.9,39.5,34.8,78,48,22,29.93,29.78,8,1,8,0.00
2013-10-14,81.6,60.6,42.3,41.7,36.1,31.8,79,45,18,30.02,29.90,2,0,6,0.00
2013-10-15,84.7,63.6,46.2,40.2,33.8,29.0,73,38,14,29.94,29.83,3,1,7,0.00
2013-10-16,84.5,60.5,43.9,41.8,33.7,29.3,70,40,15,30.01,29.88,4,-62,5,0.00
2013-10-17,84.7,62.9,43.6,40.5,35.6,30.7,79,41,15,29.98,29.85,2,0,7,0.00
2013-10-18,85.5,63.8,46.0,39.6,34.2,31.0,59,36,16,29.95,29.86,2,0,5,0.00
2013-10-19,88.4,64.6,44.2,42.1,36.7,33.5,76,41,15,29.97,29.88,1,0,3,0.00
2013-10-20,87.0,64.1,42.9,41.0,36.2,32.8,76,40,16,29.91,29.78,2,0,5,0.00
2013-10-21,78.3,57.5,46.2,43.9,37.6,34.0,70,49,27,29.89,29.80,1,0,2,0.00
2013-10-22,57.2,49.8,45.7,38.6,37.1,35.9,75,62,48,29.90,29.85,0,0,0,0.00
2013-10-23,87.6,75.0,55.3,44.7,39.0,33.7,65,31,15,29.81,29.74,2,0,5,0.00
2013-10-24,72.1,56.8,45.7,47.0,44.1,39.6,88,65,37,29.96,29.81,3,0,9,0.00
2013-10-25,81.2,60.2,43.8,47.5,41.7,37.1,87,57,21,30.07,29.96,2,0,5,0.00
2013-10-26,84.0,62.3,44.6,46.3,39.7,34.9,71,47,22,30.05,29.90,2,0,6,0.00
2013-10-27,72.3,56.3,45.8,45.4,40.4,33.0,75,57,34,29.90,29.48,15,4,22,0.00
2013-10-28,64.3,54.5,45.4,45.1,40.3,34.6,86,62,34,29.74,29.49,4,1,7,0.00
2013-10-29,68.3,57.1,49.9,44.6,41.9,38.7,70,58,37,29.93,29.74,2,0,6,0.00
2013-10-30,72.1,54.3,39.1,43.8,38.0,34.0,85,58,28,30.05,29.93,2,0,7,0.00
2013-10-31,73.5,55.1,40.6,41.4,37.3,34.1,80,55,27,30.08,29.97,3,0,7,0.00
2013-11-1,80.9,58.6,40.6,44.3,38.1,34.2,82,51,21,30.08,29.91,1,0,3,0.00
2013-11-2,77.6,58.5,41.6,45.4,38.5,32.2,74,50,27,29.92,29.76,3,0,6,0.00
2013-11-3,66.4,56.2,49.1,34.1,27.1,22.7,45,34,21,29.92,29.79,8,2,12,0.00
2013-11-4,71.1,56.4,41.6,29.6,26.5,22.4,58,35,16,29.94,29.78,8,2,13,0.00
2013-11-5,70.9,54.5,36.9,30.5,27.3,24.0,65,37,20,30.14,29.94,3,0,6,0.00
2013-11-6,77.4,57.7,41.8,37.4,32.5,29.0,71,42,18,30.18,30.08,1,0,3,0.00
2013-11-7,78.1,59.6,45.5,40.5,33.3,28.7,73,41,17,30.08,29.95,2,0,6,0.00
2013-11-8,80.1,59.6,42.3,39.8,33.6,28.9,69,41,18,29.97,29.84,1,0,3,0.00
2013-11-9,80.7,58.6,41.9,40.1,36.4,32.7,75,47,21,29.94,29.87,1,0,2,0.00
2013-11-10,77.7,56.4,41.3,40.1,36.3,33.0,76,51,22,30.00,29.92,2,0,3,0.00
2013-11-11,75.4,55.1,39.2,44.8,37.8,33.8,86,56,24,30.08,29.97,1,0,2,0.00
2013-11-12,74.9,59.7,48.8,42.5,38.2,34.6,65,47,26,30.17,30.04,2,0,5,0.00
2013-11-13,80.3,58.7,40.3,40.7,36.5,31.8,77,49,21,30.14,29.99,2,0,5,0.00
2013-11-14,67.1,57.9,46.4,48.0,43.5,39.2,80,60,45,29.98,29.73,2,0,2,0.00
2013-11-15,72.3,53.2,39.6,43.8,34.5,27.1,88,56,21,29.73,29.59,4,0,10,0.00
2013-11-16,65.2,51.0,41.3,41.0,34.4,30.5,74,55,33,29.82,29.64,3,0,7,0.00
2013-11-17,67.1,50.8,39.1,45.2,38.5,31.5,77,64,42,29.98,29.82,2,0,6,0.00
2013-11-18,62.9,50.6,38.6,45.4,40.4,33.6,85,69,48,30.05,29.96,5,0,7,0.00
2013-11-19,63.1,55.4,49.4,50.9,46.4,42.8,88,72,57,30.00,29.86,1,0,5,0.01
2013-11-20,56.7,54.8,53.5,53.7,52.1,50.4,92,90,87,29.86,29.74,3,1,5,0.74
2013-11-21,67.6,55.5,46.0,52.1,36.4,21.0,92,55,26,29.90,29.76,12,-3,18,0.18
2013-11-22,74.9,55.5,42.8,40.8,24.3,9.2,82,37,9,29.94,29.81,8,3,14,0.00
2013-11-23,65.3,49.6,39.2,48.9,39.6,35.4,90,71,41,30.02,29.91,1,0,4,0.01
2013-11-24,67.6,49.4,37.2,41.9,37.0,32.0,86,65,37,30.15,30.01,2,0,5,0.00
2013-11-25,71.1,49.9,36.2,42.2,36.8,31.8,88,64,31,30.25,30.16,2,0,5,0.00
2013-11-26,66.6,48.8,37.0,45.0,37.7,32.2,88,68,38,30.19,29.97,2,0,3,0.00
2013-11-27,69.1,52.1,40.9,44.7,39.9,36.4,86,65,36,29.97,29.76,2,0,6,0.00
2013-11-28,75.6,53.5,39.5,44.0,37.8,34.5,87,60,25,29.97,29.78,2,0,3,0.00
2013-11-29,74.4,53.3,38.3,41.6,36.8,32.5,85,58,26,30.11,29.96,2,0,4,0.00
2013-11-30,72.1,52.7,40.5,42.6,37.5,33.6,83,60,28,30.18,30.08,1,0,6,0.00
2013-12-1,73.2,52.1,37.3,43.1,37.9,32.3,86,62,29,30.26,30.12,0,0,1,0.00
2013-12-2,66.3,51.8,39.5,45.8,41.0,33.6,86,68,43,30.13,29.82,5,1,10,0.00
2013-12-3,57.6,49.9,38.8,49.9,31.8,17.1,89,54,21,29.82,29.71,8,2,16,0.00
2013-12-4,55.1,39.1,26.6,22.7,17.0,11.5,65,43,20,29.98,29.82,7,0,7,0.00
2013-12-5,53.9,34.9,22.9,23.4,16.2,11.7,79,52,19,30.07,29.98,2,0,7,0.00
2013-12-6,47.0,37.0,25.3,34.5,25.2,16.8,86,64,41,30.12,29.83,7,1,10,0.28
2013-12-7,50.1,39.2,29.7,41.6,30.5,22.9,91,73,41,30.15,29.81,9,1,11,0.08
2013-12-8,47.3,34.3,25.6,26.6,22.0,17.1,85,63,36,30.23,30.14,5,0,7,0.01
2013-12-9,48.6,33.6,21.6,27.9,21.4,16.0,84,63,38,30.35,30.21,2,0,6,0.00
2013-12-10,59.2,37.6,22.7,30.6,22.6,17.4,84,59,24,30.34,30.12,2,0,2,0.00
2013-12-11,63.5,41.4,26.3,34.6,25.8,20.4,83,58,25,30.18,30.10,2,0,5,0.00
2013-12-12,64.3,42.4,26.9,34.0,27.1,21.8,84,59,25,30.19,30.07,1,0,1,0.00
2013-12-13,64.0,43.8,28.7,31.9,27.2,22.4,82,56,26,30.23,30.13,3,0,5,0.00
2013-12-14,65.0,44.8,30.7,34.3,28.6,23.6,81,57,27,30.33,30.22,1,0,2,0.00
2013-12-15,67.8,43.8,28.2,35.2,28.9,22.8,84,60,26,30.29,30.16,1,0,1,0.00
2013-12-16,69.1,45.4,31.6,38.5,31.7,26.0,84,62,28,30.17,30.05,1,0,3,0.00
2013-12-17,64.8,47.9,35.8,40.0,34.2,30.3,85,62,35,30.11,29.94,1,0,5,0.00
2013-12-18,59.6,48.6,39.5,42.4,38.4,32.9,86,69,47,29.94,29.62,2,0,4,0.00
2013-12-19,62.3,49.0,40.2,42.0,29.9,18.8,87,54,23,29.80,29.57,13,4,21,0.00
2013-12-20,63.7,44.8,28.8,30.2,21.6,14.6,71,43,17,29.91,29.79,5,0,7,0.00
2013-12-21,63.1,45.8,33.7,37.5,29.9,26.2,79,57,27,30.01,29.87,2,0,7,0.00
2013-12-22,66.1,46.7,33.1,38.1,31.7,27.0,82,59,28,30.20,30.01,1,0,1,0.00
2013-12-23,67.9,49.1,34.3,40.4,33.6,28.4,82,59,29,30.32,30.20,3,0,3,0.00
2013-12-24,69.9,47.3,34.6,40.2,34.9,29.4,86,65,31,30.23,30.12,1,0,3,0.00
2013-12-25,68.8,47.9,32.8,40.1,34.3,27.9,86,63,32,30.23,30.12,2,0,5,0.00
2013-12-26,73.2,47.8,31.9,37.2,31.0,26.9,85,58,22,30.19,30.08,1,0,2,0.00
2013-12-27,60.2,44.5,32.4,35.9,30.7,25.8,82,61,33,30.17,30.03,2,0,3,0.00
2013-12-28,70.8,46.8,27.8,34.6,27.6,22.7,86,54,18,30.04,29.91,5,1,8,0.00
2013-12-29,66.0,45.7,31.9,36.8,29.6,24.7,78,56,28,30.11,30.00,1,0,2,0.00
2013-12-30,68.6,46.9,31.0,36.0,30.3,24.9,82,56,26,30.17,30.10,1,0,2,0.00
2013-12-31,68.3,47.6,36.5,37.7,30.3,26.4,80,56,24,30.17,30.06,2,0,3,0.00
2014-1-1,65.6,46.5,34.1,34.3,29.3,26.3,76,55,26,30.13,30.03,1,0,5,0.00
2014-1-2,70.6,46.7,32.2,37.0,29.7,-99.9,81,56,24,30.10,29.96,2,-7,3,0.00